Time;durP1;ratioP1;P1;durP2;ratioP2;P2;SDS_P1;SDS_P2;PMS_P1;PMS_P2;Temp;Humidity;BMP_temperature;BMP_pressure;BME280_temperature;BME280_humidity;BME280_pressure;Samples;Min_cycle;Max_cycle;Signal;HPM_P1;HPM_P2
2022/09/05 00:01:28;;;;;;;4.80;3.08;;;;;;;;;;5111097;27;20214;-66
2022/09/05 00:04:09;;;;;;;4.10;3.28;;;;;;;;;;5093489;27;20702;-69
2022/09/05 00:06:57;;;;;;;4.32;3.00;;;;;;;;;;5092775;27;21099;-67
2022/09/05 00:09:44;;;;;;;3.40;3.10;;;;;;;;;;5105141;27;20260;-64
2022/09/05 00:12:13;;;;;;;3.65;3.13;;;;;;;;;;5114914;27;20219;-69
2022/09/05 00:14:59;;;;;;;3.47;3.17;;;;;;;;;;5092054;28;20280;-69
2022/09/05 00:18:04;;;;;;;3.20;3.00;;;;;;;;;;5100301;28;21081;-69
2022/09/05 00:21:10;;;;;;;3.50;3.17;;;;;;;;;;5110452;27;20203;-68
2022/09/05 00:24:07;;;;;;;3.57;3.27;;;;;;;;;;5117258;27;20733;-68
2022/09/05 00:27:02;;;;;;;2.97;2.78;;;;;;;;;;5100464;27;20606;-69
2022/09/05 00:29:48;;;;;;;3.07;2.87;;;;;;;;;;5108635;27;20200;-63
2022/09/05 00:32:49;;;;;;;3.88;2.83;;;;;;;;;;5126095;27;20219;-65
2022/09/05 00:35:17;;;;;;;4.00;3.53;;;;;;;;;;5097855;28;20197;-68
2022/09/05 00:37:47;;;;;;;3.37;3.07;;;;;;;;;;5095398;28;20201;-68
2022/09/05 00:40:15;;;;;;;4.60;3.63;;;;;;;;;;5095160;27;20284;-67
2022/09/05 00:42:47;;;;;;;4.90;3.63;;;;;;;;;;5102236;27;20224;-68
2022/09/05 00:45:26;;;;;;;3.85;3.47;;;;;;;;;;5111501;27;20253;-68
2022/09/05 00:47:57;;;;;;;3.55;3.22;;;;;;;;;;5095556;27;20601;-68
2022/09/05 00:50:34;;;;;;;3.60;3.30;;;;;;;;;;5116119;27;20226;-66
2022/09/05 00:53:11;;;;;;;3.60;3.07;;;;;;;;;;5099727;28;20276;-64
2022/09/05 00:55:55;;;;;;;3.53;2.83;;;;;;;;;;5121377;27;20268;-65
2022/09/05 00:58:27;;;;;;;3.40;3.10;;;;;;;;;;5116002;27;20192;-67
2022/09/05 01:01:03;;;;;;;3.23;3.03;;;;;;;;;;5101618;27;20200;-68
2022/09/05 01:03:54;;;;;;;5.07;3.10;;;;;;;;;;5103736;27;20196;-68
2022/09/05 01:06:41;;;;;;;3.80;3.17;;;;;;;;;;5103822;27;20215;-68
2022/09/05 01:09:28;;;;;;;3.30;3.10;;;;;;;;;;5097342;27;20202;-68
2022/09/05 01:11:55;;;;;;;3.73;3.03;;;;;;;;;;5117075;27;20641;-66
2022/09/05 01:14:32;;;;;;;4.53;3.57;;;;;;;;;;5096537;27;20231;-64
2022/09/05 01:17:18;;;;;;;3.67;3.30;;;;;;;;;;5103577;27;20208;-68
2022/09/05 01:20:07;;;;;;;3.10;2.83;;;;;;;;;;5099321;27;20200;-68
2022/09/05 01:23:05;;;;;;;3.70;3.40;;;;;;;;;;5105495;27;20220;-69
2022/09/05 01:25:44;;;;;;;3.30;3.10;;;;;;;;;;5107146;27;20211;-68
2022/09/05 01:28:34;;;;;;;3.40;3.10;;;;;;;;;;5101583;27;20201;-67
2022/09/05 01:31:29;;;;;;;4.47;3.10;;;;;;;;;;5107449;27;20208;-68
2022/09/05 01:34:04;;;;;;;4.30;3.37;;;;;;;;;;5103097;27;20223;-66
2022/09/05 01:36:59;;;;;;;4.20;3.37;;;;;;;;;;5103859;27;20690;-68
2022/09/05 01:39:57;;;;;;;5.73;3.40;;;;;;;;;;5080795;27;20191;-67
2022/09/05 01:42:42;;;;;;;4.03;3.20;;;;;;;;;;5093852;27;20306;-68
2022/09/05 01:45:16;;;;;;;4.23;3.83;;;;;;;;;;5096366;27;20211;-67
2022/09/05 01:47:43;;;;;;;3.63;3.30;;;;;;;;;;5119089;27;20709;-66
2022/09/05 01:50:20;;;;;;;5.23;3.50;;;;;;;;;;5099400;27;20203;-69
2022/09/05 01:53:06;;;;;;;3.80;3.50;;;;;;;;;;5113394;27;20219;-68
2022/09/05 01:55:48;;;;;;;4.10;3.30;;;;;;;;;;5098339;27;20615;-66
2022/09/05 01:58:36;;;;;;;3.53;3.33;;;;;;;;;;5098648;27;20191;-68
2022/09/05 02:01:13;;;;;;;3.83;3.53;;;;;;;;;;5097709;27;20238;-69
2022/09/05 02:04:22;;;;;;;4.50;3.63;;;;;;;;;;5100552;27;20234;-68
2022/09/05 02:06:52;;;;;;;4.10;3.70;;;;;;;;;;5053151;27;20207;-68
2022/09/05 02:09:49;;;;;;;3.43;3.20;;;;;;;;;;5099689;27;20200;-67
2022/09/05 02:12:41;;;;;;;4.53;3.17;;;;;;;;;;5090064;27;20262;-68
2022/09/05 02:15:21;;;;;;;3.70;3.40;;;;;;;;;;5097542;27;20242;-63
2022/09/05 02:17:51;;;;;;;3.77;3.23;;;;;;;;;;5124077;27;20208;-67
2022/09/05 02:20:42;;;;;;;4.00;3.30;;;;;;;;;;5102236;27;20293;-68
2022/09/05 02:23:25;;;;;;;3.33;3.10;;;;;;;;;;5101513;27;20249;-68
2022/09/05 02:26:19;;;;;;;3.83;3.20;;;;;;;;;;5095188;27;20200;-66
2022/09/05 02:28:53;;;;;;;3.50;3.20;;;;;;;;;;5098089;27;20254;-65
2022/09/05 02:31:26;;;;;;;3.60;3.30;;;;;;;;;;5091130;27;20207;-68
2022/09/05 02:34:09;;;;;;;3.63;3.30;;;;;;;;;;5103613;27;20223;-68
2022/09/05 02:36:37;;;;;;;3.73;3.27;;;;;;;;;;5086297;27;20686;-65
2022/09/05 02:39:04;;;;;;;4.07;3.30;;;;;;;;;;5094960;27;20200;-68
2022/09/05 02:41:51;;;;;;;4.03;3.60;;;;;;;;;;5094450;27;20236;-67
2022/09/05 02:44:58;;;;;;;5.70;3.77;;;;;;;;;;5093203;27;20208;-65
2022/09/05 02:47:45;;;;;;;4.80;3.67;;;;;;;;;;5088124;27;20216;-65
2022/09/05 02:50:22;;;;;;;5.77;3.70;;;;;;;;;;5103078;27;20203;-68
2022/09/05 02:53:12;;;;;;;5.93;3.90;;;;;;;;;;5091721;27;20224;-68
2022/09/05 02:56:02;;;;;;;3.77;3.47;;;;;;;;;;5104520;27;20235;-66
2022/09/05 02:58:54;;;;;;;3.60;3.30;;;;;;;;;;5097019;27;20200;-67
2022/09/05 03:01:48;;;;;;;3.70;3.40;;;;;;;;;;5097104;27;20261;-68
2022/09/05 03:04:25;;;;;;;3.67;3.23;;;;;;;;;;5095898;27;20214;-65
2022/09/05 03:06:56;;;;;;;3.43;3.20;;;;;;;;;;5095593;27;20212;-65
2022/09/05 03:09:36;;;;;;;3.43;3.23;;;;;;;;;;5097147;27;20204;-66
2022/09/05 03:12:22;;;;;;;3.73;3.43;;;;;;;;;;5110486;27;20227;-66
2022/09/05 03:15:14;;;;;;;3.70;3.40;;;;;;;;;;5099846;27;20238;-66
2022/09/05 03:18:08;;;;;;;4.03;3.50;;;;;;;;;;5095323;27;20703;-66
2022/09/05 03:21:14;;;;;;;4.17;3.83;;;;;;;;;;5101122;27;20391;-67
2022/09/05 03:23:54;;;;;;;4.13;3.77;;;;;;;;;;5087448;27;20249;-68
2022/09/05 03:26:21;;;;;;;3.93;3.63;;;;;;;;;;5089587;27;20252;-67
2022/09/05 03:29:02;;;;;;;4.67;3.93;;;;;;;;;;5090065;27;20566;-68
2022/09/05 03:31:39;;;;;;;5.63;4.33;;;;;;;;;;5099325;27;20331;-65
2022/09/05 03:34:22;;;;;;;4.17;3.87;;;;;;;;;;5103194;27;20226;-67
2022/09/05 03:37:05;;;;;;;4.00;3.70;;;;;;;;;;5088599;27;20203;-67
2022/09/05 03:39:36;;;;;;;3.77;3.40;;;;;;;;;;5089384;27;20246;-69
2022/09/05 03:42:06;;;;;;;4.20;3.80;;;;;;;;;;5088785;27;20220;-66
2022/09/05 03:44:44;;;;;;;4.70;4.30;;;;;;;;;;5124838;27;20200;-67
2022/09/05 03:47:36;;;;;;;6.13;4.80;;;;;;;;;;5114817;27;20619;-68
2022/09/05 03:50:11;;;;;;;5.70;4.70;;;;;;;;;;5092013;27;20192;-66
2022/09/05 03:53:25;;;;;;;4.80;4.40;;;;;;;;;;5098384;27;20223;-67
2022/09/05 03:56:16;;;;;;;5.63;5.13;;;;;;;;;;5095655;27;20235;-68
2022/09/05 03:59:29;;;;;;;5.40;4.07;;;;;;;;;;5096521;27;20207;-64
2022/09/05 04:02:03;;;;;;;5.07;4.57;;;;;;;;;;5086528;27;20626;-66
2022/09/05 04:04:50;;;;;;;5.73;4.80;;;;;;;;;;5107180;27;20239;-68
2022/09/05 04:07:41;;;;;;;5.73;4.70;;;;;;;;;;5095230;27;20203;-66
2022/09/05 04:10:32;;;;;;;4.60;4.17;;;;;;;;;;5098799;27;20203;-67
2022/09/05 04:13:19;;;;;;;6.00;4.40;;;;;;;;;;5083061;28;20224;-68
2022/09/05 04:15:49;;;;;;;4.53;4.13;;;;;;;;;;5099487;28;20204;-67
2022/09/05 04:18:24;;;;;;;5.10;4.50;;;;;;;;;;5100687;28;20199;-66
2022/09/05 04:21:06;;;;;;;6.20;4.30;;;;;;;;;;5101874;27;20218;-65
2022/09/05 04:23:33;;;;;;;6.93;5.20;;;;;;;;;;5097432;28;20228;-69
2022/09/05 04:26:01;;;;;;;5.57;4.97;;;;;;;;;;5099818;28;20199;-68
2022/09/05 04:28:53;;;;;;;7.23;5.27;;;;;;;;;;5096026;28;20203;-66
2022/09/05 04:31:40;;;;;;;5.63;4.83;;;;;;;;;;5086768;28;20203;-66
2022/09/05 04:34:26;;;;;;;7.43;4.57;;;;;;;;;;5094139;28;20342;-65
2022/09/05 04:37:01;;;;;;;7.20;4.50;;;;;;;;;;5103721;27;20291;-63
2022/09/05 04:39:28;;;;;;;5.93;4.87;;;;;;;;;;5098684;27;20698;-68
2022/09/05 04:42:02;;;;;;;5.33;4.53;;;;;;;;;;5098349;28;20220;-66
2022/09/05 04:44:40;;;;;;;6.80;4.60;;;;;;;;;;5123360;27;20225;-67
2022/09/05 04:47:09;;;;;;;5.33;4.47;;;;;;;;;;5106711;28;21186;-66
2022/09/05 04:49:43;;;;;;;6.17;4.27;;;;;;;;;;5088394;27;20299;-69
2022/09/05 04:52:30;;;;;;;5.13;4.30;;;;;;;;;;5098226;28;20227;-66
2022/09/05 04:55:13;;;;;;;6.60;4.37;;;;;;;;;;5099580;27;20234;-67
2022/09/05 04:57:59;;;;;;;4.50;4.10;;;;;;;;;;5096683;27;20195;-69
2022/09/05 05:00:36;;;;;;;4.20;3.80;;;;;;;;;;5105782;27;20213;-68
2022/09/05 05:03:27;;;;;;;5.87;4.00;;;;;;;;;;5096188;27;20223;-68
2022/09/05 05:06:17;;;;;;;3.47;3.17;;;;;;;;;;5103694;27;20269;-69
2022/09/05 05:09:04;;;;;;;5.87;3.80;;;;;;;;;;5101636;27;20203;-66
2022/09/05 05:11:50;;;;;;;4.60;3.43;;;;;;;;;;5103839;27;20759;-67
2022/09/05 05:14:53;;;;;;;3.93;3.20;;;;;;;;;;5107899;27;20219;-66
2022/09/05 05:17:44;;;;;;;4.60;3.60;;;;;;;;;;5102629;27;20231;-66
2022/09/05 05:20:43;;;;;;;5.70;3.50;;;;;;;;;;5099414;27;20300;-67
2022/09/05 05:23:18;;;;;;;4.43;3.67;;;;;;;;;;5105820;27;20592;-68
2022/09/05 05:25:54;;;;;;;3.23;3.00;;;;;;;;;;5106722;27;20600;-68
2022/09/05 05:28:27;;;;;;;3.87;3.57;;;;;;;;;;5100612;27;20252;-67
2022/09/05 05:30:55;;;;;;;5.57;3.50;;;;;;;;;;5100448;27;20242;-66
2022/09/05 05:33:32;;;;;;;4.63;3.40;;;;;;;;;;5107038;27;20995;-68
2022/09/05 05:36:01;;;;;;;4.97;3.57;;;;;;;;;;5103298;27;20271;-67
2022/09/05 05:38:37;;;;;;;5.57;3.40;;;;;;;;;;5123543;27;20212;-68
2022/09/05 05:41:12;;;;;;;10.27;3.53;;;;;;;;;;5113072;27;20257;-68
2022/09/05 05:43:41;;;;;;;8.63;3.90;;;;;;;;;;5099401;27;20220;-63
2022/09/05 05:46:15;;;;;;;8.90;3.73;;;;;;;;;;5103886;27;20544;-68
2022/09/05 05:48:44;;;;;;;7.23;3.70;;;;;;;;;;5093819;27;20736;-65
2022/09/05 05:51:36;;;;;;;7.90;3.40;;;;;;;;;;5107092;27;20206;-68
2022/09/05 05:54:24;;;;;;;6.83;4.03;;;;;;;;;;5119653;27;20227;-67
2022/09/05 05:57:10;;;;;;;4.33;3.20;;;;;;;;;;5103208;27;20282;-67
2022/09/05 05:59:47;;;;;;;7.07;4.03;;;;;;;;;;5090770;27;20226;-66
2022/09/05 06:02:28;;;;;;;7.57;3.80;;;;;;;;;;5124221;27;20227;-66
2022/09/05 06:04:59;;;;;;;8.27;4.27;;;;;;;;;;5106893;27;20206;-67
2022/09/05 06:07:36;;;;;;;5.63;4.50;;;;;;;;;;5110339;27;20211;-66
2022/09/05 06:10:24;;;;;;;5.20;3.63;;;;;;;;;;5112928;27;20264;-68
2022/09/05 06:13:11;;;;;;;4.17;3.87;;;;;;;;;;5109499;27;20293;-67
2022/09/05 06:16:19;;;;;;;4.57;4.13;;;;;;;;;;5107269;27;20215;-68
2022/09/05 06:19:06;;;;;;;6.83;4.20;;;;;;;;;;5120218;27;20200;-67
2022/09/05 06:21:34;;;;;;;4.33;3.90;;;;;;;;;;5125901;27;20256;-66
2022/09/05 06:24:30;;;;;;;5.20;3.80;;;;;;;;;;5109205;27;20654;-68
2022/09/05 06:27:05;;;;;;;11.52;4.47;;;;;;;;;;5120646;27;20203;-67
2022/09/05 06:29:54;;;;;;;8.95;4.43;;;;;;;;;;5119162;27;20220;-67
2022/09/05 06:32:37;;;;;;;8.35;3.83;;;;;;;;;;5105340;27;20224;-68
2022/09/05 06:35:17;;;;;;;4.97;3.97;;;;;;;;;;5092419;27;20255;-67
2022/09/05 06:37:47;;;;;;;5.40;4.20;;;;;;;;;;5111059;27;21516;-66
2022/09/05 06:40:20;;;;;;;5.90;4.25;;;;;;;;;;5104875;27;20208;-67
2022/09/05 06:42:51;;;;;;;5.70;4.07;;;;;;;;;;5101544;27;20224;-67
2022/09/05 06:45:37;;;;;;;8.30;4.05;;;;;;;;;;5102073;27;20621;-67
2022/09/05 06:48:10;;;;;;;5.22;4.13;;;;;;;;;;5102976;27;20211;-67
2022/09/05 06:50:57;;;;;;;4.10;3.78;;;;;;;;;;5099695;27;20207;-68
2022/09/05 06:53:53;;;;;;;4.13;3.72;;;;;;;;;;5098550;27;20276;-67
2022/09/05 06:56:20;;;;;;;5.18;3.78;;;;;;;;;;5100224;27;20268;-68
2022/09/05 06:59:10;;;;;;;4.07;3.67;;;;;;;;;;5093262;27;20204;-67
2022/09/05 07:02:07;;;;;;;3.97;3.67;;;;;;;;;;5080826;27;20203;-68
2022/09/05 07:04:39;;;;;;;4.30;3.90;;;;;;;;;;5111665;27;20209;-68
2022/09/05 07:07:35;;;;;;;6.90;4.07;;;;;;;;;;5123258;27;20725;-67
2022/09/05 07:10:06;;;;;;;4.40;3.70;;;;;;;;;;5104971;27;20241;-67
2022/09/05 07:12:57;;;;;;;7.47;3.63;;;;;;;;;;5094141;27;20228;-68
2022/09/05 07:15:34;;;;;;;7.55;4.10;;;;;;;;;;5103606;27;20219;-67
2022/09/05 07:18:07;;;;;;;3.88;3.30;;;;;;;;;;5096319;27;20204;-68
2022/09/05 07:20:54;;;;;;;5.45;3.38;;;;;;;;;;5105395;27;20199;-67
2022/09/05 07:23:54;;;;;;;3.90;3.53;;;;;;;;;;5120066;27;20296;-67
2022/09/05 07:26:38;;;;;;;3.28;3.03;;;;;;;;;;5108559;27;20199;-67
2022/09/05 07:29:41;;;;;;;9.77;4.00;;;;;;;;;;5098068;27;20283;-67
2022/09/05 07:32:28;;;;;;;4.25;3.85;;;;;;;;;;5104770;27;20215;-67
2022/09/05 07:34:57;;;;;;;5.07;3.60;;;;;;;;;;5099892;27;20242;-67
2022/09/05 07:37:28;;;;;;;5.40;4.15;;;;;;;;;;5101322;28;20685;-68
2022/09/05 07:39:56;;;;;;;4.80;4.07;;;;;;;;;;5097947;27;20204;-67
2022/09/05 07:42:32;;;;;;;4.00;3.70;;;;;;;;;;5092981;27;20219;-68
2022/09/05 07:45:05;;;;;;;4.47;4.07;;;;;;;;;;5102136;27;20252;-67
2022/09/05 07:47:34;;;;;;;3.75;3.45;;;;;;;;;;5096008;27;20304;-68
2022/09/05 07:50:09;;;;;;;4.10;3.70;;;;;;;;;;5100759;27;20219;-66
2022/09/05 07:52:59;;;;;;;3.97;3.67;;;;;;;;;;5098535;27;20261;-67
2022/09/05 07:55:55;;;;;;;4.50;4.10;;;;;;;;;;5100493;27;20762;-66
2022/09/05 07:58:44;;;;;;;4.55;3.90;;;;;;;;;;5100920;27;20214;-67
2022/09/05 08:01:13;;;;;;;8.68;3.88;;;;;;;;;;5100806;27;20203;-67
2022/09/05 08:03:42;;;;;;;3.88;3.45;;;;;;;;;;5101504;27;20308;-67
2022/09/05 08:06:18;;;;;;;3.17;2.85;;;;;;;;;;5099790;28;20208;-67
2022/09/05 08:09:08;;;;;;;3.70;2.60;;;;;;;;;;5101733;28;20231;-68
2022/09/05 08:11:58;;;;;;;4.28;2.65;;;;;;;;;;5101778;28;20914;-65
2022/09/05 08:14:54;;;;;;;3.00;2.80;;;;;;;;;;5101286;27;20235;-65
2022/09/05 08:17:23;;;;;;;3.50;2.95;;;;;;;;;;5101202;28;20200;-66
2022/09/05 08:19:56;;;;;;;3.05;2.75;;;;;;;;;;5101768;28;20284;-67
2022/09/05 08:22:41;;;;;;;3.80;2.80;;;;;;;;;;5100004;28;20311;-68
2022/09/05 08:25:22;;;;;;;3.20;2.90;;;;;;;;;;5101109;28;20766;-68
2022/09/05 08:27:59;;;;;;;6.80;3.33;;;;;;;;;;5101334;27;20920;-68
2022/09/05 08:30:27;;;;;;;5.07;2.80;;;;;;;;;;5100503;27;20207;-67
2022/09/05 08:32:57;;;;;;;4.75;3.08;;;;;;;;;;5105217;27;20666;-67
2022/09/05 08:35:41;;;;;;;6.57;2.78;;;;;;;;;;5115283;27;20592;-65
2022/09/05 08:38:08;;;;;;;5.05;2.55;;;;;;;;;;5107385;27;20196;-66
2022/09/05 08:40:40;;;;;;;2.75;2.55;;;;;;;;;;5109381;27;20195;-67
2022/09/05 08:43:18;;;;;;;2.88;2.67;;;;;;;;;;5127826;27;20262;-65
2022/09/05 08:46:08;;;;;;;2.80;2.50;;;;;;;;;;5109602;27;20932;-65
2022/09/05 08:49:14;;;;;;;3.28;2.70;;;;;;;;;;5115669;27;20206;-65
2022/09/05 08:52:10;;;;;;;3.22;2.65;;;;;;;;;;5106638;27;20265;-65
2022/09/05 08:54:38;;;;;;;2.75;2.55;;;;;;;;;;5104491;27;20196;-68
2022/09/05 08:57:12;;;;;;;4.00;2.47;;;;;;;;;;5097992;27;20192;-66
2022/09/05 08:59:52;;;;;;;4.22;2.80;;;;;;;;;;5110410;27;20608;-66
2022/09/05 09:02:42;;;;;;;2.33;2.13;;;;;;;;;;5101169;27;20265;-66
2022/09/05 09:05:21;;;;;;;2.70;2.40;;;;;;;;;;5102428;27;20203;-65
2022/09/05 09:07:56;;;;;;;2.40;2.20;;;;;;;;;;5099946;27;20199;-66
2022/09/05 09:10:33;;;;;;;2.55;2.35;;;;;;;;;;5102825;27;20204;-65
2022/09/05 09:13:04;;;;;;;3.10;2.90;;;;;;;;;;5106610;27;20218;-64
2022/09/05 09:15:34;;;;;;;2.50;2.30;;;;;;;;;;5107736;27;20215;-66
2022/09/05 09:18:09;;;;;;;4.57;3.38;;;;;;;;;;5109177;27;20257;-65
2022/09/05 09:20:36;;;;;;;2.70;2.33;;;;;;;;;;5097797;27;20195;-66
2022/09/05 09:23:23;;;;;;;3.10;2.80;;;;;;;;;;5105502;27;20888;-65
2022/09/05 09:26:05;;;;;;;4.10;2.47;;;;;;;;;;5108347;27;20213;-65
2022/09/05 09:28:42;;;;;;;5.03;2.80;;;;;;;;;;5105664;27;20222;-64
2022/09/05 09:31:17;;;;;;;3.85;2.70;;;;;;;;;;5104735;27;20208;-66
2022/09/05 09:34:03;;;;;;;2.83;2.60;;;;;;;;;;5102362;27;20280;-66
2022/09/05 09:36:37;;;;;;;3.05;2.40;;;;;;;;;;5105165;27;20371;-66
2022/09/05 09:39:04;;;;;;;2.50;2.30;;;;;;;;;;5110354;27;20231;-65
2022/09/05 09:41:56;;;;;;;3.03;2.42;;;;;;;;;;5106369;27;20221;-65
2022/09/05 09:44:44;;;;;;;2.90;2.25;;;;;;;;;;5112908;27;20632;-67
2022/09/05 09:47:21;;;;;;;2.80;2.28;;;;;;;;;;5106760;27;20211;-64
2022/09/05 09:50:03;;;;;;;3.17;2.50;;;;;;;;;;5098037;27;20215;-66
2022/09/05 09:52:49;;;;;;;2.30;2.10;;;;;;;;;;5104295;27;20238;-66
2022/09/05 09:55:39;;;;;;;2.42;2.22;;;;;;;;;;5107615;27;20819;-67
2022/09/05 09:58:26;;;;;;;2.40;2.20;;;;;;;;;;5098277;27;20212;-68
2022/09/05 10:01:07;;;;;;;3.35;2.40;;;;;;;;;;5109958;27;20207;-67
2022/09/05 10:04:05;;;;;;;2.72;2.30;;;;;;;;;;5110046;27;20218;-67
2022/09/05 10:07:11;;;;;;;3.83;2.38;;;;;;;;;;5108579;27;20248;-68
2022/09/05 10:10:01;;;;;;;2.92;2.30;;;;;;;;;;5095571;27;20718;-65
2022/09/05 10:12:49;;;;;;;4.75;2.35;;;;;;;;;;5102389;27;20227;-65
2022/09/05 10:15:38;;;;;;;2.38;2.05;;;;;;;;;;5106317;27;20215;-69
2022/09/05 10:18:19;;;;;;;2.20;2.10;;;;;;;;;;5100917;27;20212;-66
2022/09/05 10:20:59;;;;;;;3.22;2.25;;;;;;;;;;5116049;27;20252;-66
2022/09/05 10:23:46;;;;;;;4.00;2.20;;;;;;;;;;5102619;27;20294;-72
2022/09/05 10:26:32;;;;;;;2.22;2.10;;;;;;;;;;5103153;27;20205;-65
2022/09/05 10:29:05;;;;;;;2.58;2.00;;;;;;;;;;5096805;27;20720;-68
2022/09/05 10:31:57;;;;;;;4.15;2.03;;;;;;;;;;5108462;27;20227;-65
2022/09/05 10:34:44;;;;;;;3.45;2.22;;;;;;;;;;5108565;27;20200;-68
2022/09/05 10:37:55;;;;;;;2.17;1.92;;;;;;;;;;5108309;27;20240;-67
2022/09/05 10:40:24;;;;;;;4.88;2.30;;;;;;;;;;5087810;27;20208;-68
2022/09/05 10:42:53;;;;;;;2.40;2.20;;;;;;;;;;5098870;27;20223;-68
2022/09/05 10:45:27;;;;;;;4.93;2.30;;;;;;;;;;5106768;27;20210;-66
2022/09/05 10:48:14;;;;;;;1.92;1.77;;;;;;;;;;5105257;27;20749;-68
2022/09/05 10:50:49;;;;;;;2.22;2.00;;;;;;;;;;5109895;27;20660;-65
2022/09/05 10:53:26;;;;;;;2.75;2.08;;;;;;;;;;5110391;27;20764;-67
2022/09/05 10:56:16;;;;;;;2.85;2.10;;;;;;;;;;5112836;27;20887;-66
2022/09/05 10:58:46;;;;;;;2.83;2.13;;;;;;;;;;5117011;27;20213;-67
2022/09/05 11:01:40;;;;;;;3.55;2.05;;;;;;;;;;5109731;27;20204;-67
2022/09/05 11:04:47;;;;;;;2.10;2.00;;;;;;;;;;5103489;27;20204;-66
2022/09/05 11:07:20;;;;;;;2.22;1.95;;;;;;;;;;5072962;27;20203;-66
2022/09/05 11:09:58;;;;;;;2.67;1.90;;;;;;;;;;5116572;27;20210;-67
2022/09/05 11:12:44;;;;;;;2.30;2.10;;;;;;;;;;5102799;27;20223;-68
2022/09/05 11:15:30;;;;;;;2.85;2.05;;;;;;;;;;5104958;27;20231;-66
2022/09/05 11:18:02;;;;;;;2.72;1.95;;;;;;;;;;5101229;27;20600;-67
2022/09/05 11:20:54;;;;;;;2.35;1.98;;;;;;;;;;5108102;27;20195;-68
2022/09/05 11:23:24;;;;;;;1.80;1.70;;;;;;;;;;5101425;27;20216;-66
2022/09/05 11:26:15;;;;;;;1.90;1.80;;;;;;;;;;5101520;27;20264;-65
2022/09/05 11:29:12;;;;;;;1.88;1.77;;;;;;;;;;5100692;27;20669;-67
2022/09/05 11:31:48;;;;;;;2.20;2.10;;;;;;;;;;5088473;27;20550;-66
2022/09/05 11:34:45;;;;;;;2.83;2.17;;;;;;;;;;5101681;27;20215;-65
2022/09/05 11:37:45;;;;;;;2.97;1.90;;;;;;;;;;5119976;27;20949;-67
2022/09/05 11:40:43;;;;;;;1.80;1.70;;;;;;;;;;5106095;27;20203;-69
2022/09/05 11:43:37;;;;;;;1.80;1.70;;;;;;;;;;5104938;27;20247;-65
2022/09/05 11:46:08;;;;;;;2.20;2.00;;;;;;;;;;5104054;27;20577;-66
2022/09/05 11:49:02;;;;;;;3.70;1.92;;;;;;;;;;5104793;27;20203;-64
2022/09/05 11:51:48;;;;;;;7.75;2.17;;;;;;;;;;5116740;27;20229;-68
2022/09/05 11:54:36;;;;;;;3.50;1.75;;;;;;;;;;5114460;27;20233;-69
2022/09/05 11:57:18;;;;;;;1.98;1.88;;;;;;;;;;5114653;27;20223;-70
2022/09/05 12:00:00;;;;;;;2.60;2.00;;;;;;;;;;5114913;27;20294;-67
2022/09/05 12:03:00;;;;;;;2.00;1.90;;;;;;;;;;5110269;28;20216;-66
2022/09/05 12:05:30;;;;;;;2.22;2.08;;;;;;;;;;5094018;27;20210;-65
2022/09/05 12:08:24;;;;;;;3.63;1.90;;;;;;;;;;5103458;27;20210;-66
2022/09/05 12:10:58;;;;;;;3.03;1.60;;;;;;;;;;5105986;28;20208;-66
2022/09/05 12:13:48;;;;;;;2.10;1.90;;;;;;;;;;5105363;27;20943;-65
2022/09/05 12:16:20;;;;;;;3.20;2.08;;;;;;;;;;5063491;27;20223;-66
2022/09/05 12:19:25;;;;;;;1.80;1.70;;;;;;;;;;5099300;28;20580;-68
2022/09/05 12:21:56;;;;;;;2.13;1.98;;;;;;;;;;5102509;28;20881;-67
2022/09/05 12:24:46;;;;;;;2.38;2.17;;;;;;;;;;5099978;27;20204;-69
2022/09/05 12:27:36;;;;;;;2.15;1.80;;;;;;;;;;5103630;27;20244;-68
2022/09/05 12:30:14;;;;;;;2.20;2.10;;;;;;;;;;5102076;27;20249;-65
2022/09/05 12:32:52;;;;;;;1.77;1.67;;;;;;;;;;5104984;27;20607;-68
2022/09/05 12:36:03;;;;;;;3.60;2.13;;;;;;;;;;5102459;27;20223;-67
2022/09/05 12:38:50;;;;;;;2.03;1.80;;;;;;;;;;5120502;27;20620;-67
2022/09/05 12:41:41;;;;;;;2.50;2.30;;;;;;;;;;5106668;27;20200;-68
2022/09/05 12:44:31;;;;;;;1.80;1.70;;;;;;;;;;5099188;27;20252;-69
2022/09/05 12:47:11;;;;;;;2.40;2.20;;;;;;;;;;5104931;28;20354;-69
2022/09/05 12:49:46;;;;;;;2.47;2.17;;;;;;;;;;5104170;27;20210;-66
2022/09/05 12:52:34;;;;;;;3.20;2.08;;;;;;;;;;5105582;28;20622;-68
2022/09/05 12:55:28;;;;;;;2.45;2.00;;;;;;;;;;5100457;28;20211;-67
2022/09/05 12:58:00;;;;;;;2.35;2.10;;;;;;;;;;5082532;28;20821;-67
2022/09/05 13:00:48;;;;;;;3.55;2.33;;;;;;;;;;5105043;28;20200;-68
2022/09/05 13:03:43;;;;;;;3.22;2.20;;;;;;;;;;5105898;27;20292;-67
2022/09/05 13:06:34;;;;;;;2.67;1.92;;;;;;;;;;5104639;28;20757;-67
2022/09/05 13:09:05;;;;;;;2.42;2.10;;;;;;;;;;5107296;28;20630;-65
2022/09/05 13:11:39;;;;;;;1.80;1.70;;;;;;;;;;5093007;27;21134;-67
2022/09/05 13:14:47;;;;;;;2.08;1.83;;;;;;;;;;5103864;27;20204;-68
2022/09/05 13:17:39;;;;;;;2.30;2.10;;;;;;;;;;5108435;27;20236;-65
2022/09/05 13:20:34;;;;;;;2.63;2.20;;;;;;;;;;5104963;27;20239;-65
2022/09/05 13:23:21;;;;;;;1.95;1.60;;;;;;;;;;5114548;27;20224;-66
2022/09/05 13:25:57;;;;;;;2.45;1.95;;;;;;;;;;5103285;27;20207;-72
2022/09/05 13:28:26;;;;;;;3.10;2.10;;;;;;;;;;5104747;27;20195;-65
2022/09/05 13:31:02;;;;;;;2.25;1.90;;;;;;;;;;5107361;27;20256;-68
2022/09/05 13:33:50;;;;;;;2.85;2.10;;;;;;;;;;5109126;27;20264;-67
2022/09/05 13:37:02;;;;;;;1.95;1.85;;;;;;;;;;5114733;27;20203;-70
2022/09/05 13:39:59;;;;;;;2.58;2.00;;;;;;;;;;5127631;27;20204;-67
2022/09/05 13:42:29;;;;;;;2.67;2.10;;;;;;;;;;5110562;27;20223;-65
2022/09/05 13:45:00;;;;;;;2.78;2.10;;;;;;;;;;5105625;27;20203;-68
2022/09/05 13:47:28;;;;;;;3.13;2.10;;;;;;;;;;5129538;27;20272;-66
2022/09/05 13:50:12;;;;;;;3.28;2.03;;;;;;;;;;5129251;27;20653;-65
2022/09/05 13:52:46;;;;;;;2.33;2.00;;;;;;;;;;5106446;27;20227;-65
2022/09/05 13:55:20;;;;;;;2.00;1.90;;;;;;;;;;5104517;27;20211;-66
2022/09/05 13:57:50;;;;;;;2.55;2.22;;;;;;;;;;5105022;27;20229;-67
2022/09/05 14:00:42;;;;;;;2.67;2.13;;;;;;;;;;5102295;27;20230;-66
2022/09/05 14:03:28;;;;;;;2.35;2.13;;;;;;;;;;5066865;27;20223;-67
2022/09/05 14:06:16;;;;;;;3.45;2.22;;;;;;;;;;5103044;27;20319;-66
2022/09/05 14:09:04;;;;;;;4.03;2.55;;;;;;;;;;5107202;27;20208;-68
2022/09/05 14:11:54;;;;;;;2.20;2.10;;;;;;;;;;5103927;27;20735;-64
2022/09/05 14:14:29;;;;;;;2.90;2.22;;;;;;;;;;5106343;27;20204;-65
2022/09/05 14:17:19;;;;;;;2.25;2.03;;;;;;;;;;5106007;27;20247;-68
2022/09/05 14:22:59;;;;;;;3.25;2.95;;;;;;;;;;5124241;27;20276;-67
2022/09/05 14:25:28;;;;;;;2.90;2.42;;;;;;;;;;5104871;28;20193;-67
2022/09/05 14:27:59;;;;;;;9.13;3.95;;;;;;;;;;5108033;27;20233;-65
2022/09/05 14:30:42;;;;;;;13.95;4.75;;;;;;;;;;5106430;27;20914;-64
2022/09/05 14:33:38;;;;;;;7.55;4.40;;;;;;;;;;5096372;27;20219;-67
2022/09/05 14:36:29;;;;;;;8.75;3.78;;;;;;;;;;5103343;27;20709;-64
2022/09/05 14:39:24;;;;;;;4.15;2.92;;;;;;;;;;5101898;27;20193;-65
2022/09/05 14:42:10;;;;;;;4.10;2.58;;;;;;;;;;5090786;27;20245;-66
2022/09/05 14:44:41;;;;;;;3.40;1.90;;;;;;;;;;5099975;27;20195;-65
2022/09/05 14:47:27;;;;;;;1.35;1.30;;;;;;;;;;5097130;27;20255;-65
2022/09/05 14:50:02;;;;;;;2.20;2.00;;;;;;;;;;5107882;27;20208;-70
2022/09/05 14:52:32;;;;;;;3.22;2.95;;;;;;;;;;5100499;27;20238;-68
2022/09/05 14:55:14;;;;;;;4.25;3.47;;;;;;;;;;5096133;27;20688;-68
2022/09/05 14:57:46;;;;;;;3.28;2.78;;;;;;;;;;5097222;27;20234;-66
2022/09/05 15:00:55;;;;;;;3.78;3.33;;;;;;;;;;5100960;27;20276;-64
2022/09/05 15:03:47;;;;;;;3.20;3.00;;;;;;;;;;5089836;27;20582;-66
2022/09/05 15:06:34;;;;;;;4.38;3.08;;;;;;;;;;5102422;27;20263;-72
2022/09/05 15:09:04;;;;;;;3.00;2.80;;;;;;;;;;5098147;27;20229;-65
2022/09/05 15:11:52;;;;;;;2.95;2.50;;;;;;;;;;5107872;27;20575;-65
2022/09/05 15:14:43;;;;;;;3.85;2.92;;;;;;;;;;5099774;27;20265;-70
2022/09/05 15:17:19;;;;;;;2.75;2.55;;;;;;;;;;5099513;27;20223;-67
2022/09/05 15:19:51;;;;;;;3.58;2.50;;;;;;;;;;5104213;27;20401;-66
2022/09/05 15:22:40;;;;;;;3.00;2.33;;;;;;;;;;5108684;27;20221;-66
2022/09/05 15:25:13;;;;;;;2.55;2.00;;;;;;;;;;5096106;27;20203;-72
2022/09/05 15:27:44;;;;;;;2.58;2.10;;;;;;;;;;5090790;27;20776;-67
2022/09/05 15:30:29;;;;;;;2.22;2.13;;;;;;;;;;5104346;27;20294;-68
2022/09/05 15:33:24;;;;;;;2.28;2.00;;;;;;;;;;5116638;27;20254;-70
2022/09/05 15:35:53;;;;;;;5.50;1.90;;;;;;;;;;5096597;27;20673;-67
2022/09/05 15:38:23;;;;;;;2.17;1.92;;;;;;;;;;5102087;27;20819;-65
2022/09/05 15:41:01;;;;;;;2.38;2.17;;;;;;;;;;5099036;27;20693;-67
2022/09/05 15:43:29;;;;;;;2.88;2.10;;;;;;;;;;5099180;27;21545;-68
2022/09/05 15:46:04;;;;;;;3.67;2.13;;;;;;;;;;5107813;27;20210;-69
2022/09/05 15:48:34;;;;;;;2.20;2.00;;;;;;;;;;5124672;27;20199;-67
2022/09/05 15:51:18;;;;;;;2.05;1.92;;;;;;;;;;5098489;28;20208;-72
2022/09/05 15:53:50;;;;;;;2.40;1.73;;;;;;;;;;5097396;27;20311;-69
2022/09/05 15:56:20;;;;;;;2.25;1.95;;;;;;;;;;5098458;27;20207;-68
2022/09/05 15:58:57;;;;;;;2.92;2.08;;;;;;;;;;5095136;27;20260;-66
2022/09/05 16:01:29;;;;;;;2.05;1.45;;;;;;;;;;5102789;27;20195;-68
2022/09/05 16:04:19;;;;;;;2.45;1.88;;;;;;;;;;5112102;27;20227;-72
2022/09/05 16:07:07;;;;;;;1.67;1.58;;;;;;;;;;5097228;27;20260;-68
2022/09/05 16:09:55;;;;;;;1.80;1.65;;;;;;;;;;5098536;27;20256;-67
2022/09/05 16:12:45;;;;;;;4.72;1.80;;;;;;;;;;5092057;27;20220;-67
2022/09/05 16:15:18;;;;;;;2.13;1.70;;;;;;;;;;5088942;27;20215;-69
2022/09/05 16:18:14;;;;;;;2.00;1.90;;;;;;;;;;5097710;27;20605;-68